sensor_id;sensor_type;location;lat;lon;timestamp;pressure;altitude;pressure_sealevel;temperature;humidity
6024;BME280;3040;42.654;23.296;2023-05-09T00:01:20;94533.75;;;16.31;76.32
6024;BME280;3040;42.654;23.296;2023-05-09T00:03:48;94539.81;;;16.27;73.17
6024;BME280;3040;42.654;23.296;2023-05-09T00:06:16;94532.09;;;16.22;74.15
6024;BME280;3040;42.654;23.296;2023-05-09T00:08:43;94526.50;;;16.05;74.03
6024;BME280;3040;42.654;23.296;2023-05-09T00:11:10;94533.63;;;16.20;74.31
6024;BME280;3040;42.654;23.296;2023-05-09T00:13:37;94527.41;;;16.16;75.13
6024;BME280;3040;42.654;23.296;2023-05-09T00:16:05;94528.88;;;16.10;74.74
6024;BME280;3040;42.654;23.296;2023-05-09T00:18:32;94529.75;;;16.17;75.15
6024;BME280;3040;42.654;23.296;2023-05-09T00:21:02;94525.16;;;16.18;74.95
6024;BME280;3040;42.654;23.296;2023-05-09T00:23:29;94474.81;;;15.25;76.52
6024;BME280;3040;42.654;23.296;2023-05-09T00:25:56;94486.38;;;15.56;75.73
6024;BME280;3040;42.654;23.296;2023-05-09T00:28:23;94517.53;;;15.90;76.06
6024;BME280;3040;42.654;23.296;2023-05-09T00:30:50;94479.59;;;15.35;75.68
6024;BME280;3040;42.654;23.296;2023-05-09T00:33:18;94518.09;;;15.76;75.11
6024;BME280;3040;42.654;23.296;2023-05-09T00:35:44;94518.97;;;15.84;74.86
6024;BME280;3040;42.654;23.296;2023-05-09T00:38:13;94520.38;;;16.04;75.68
6024;BME280;3040;42.654;23.296;2023-05-09T00:40:39;94510.47;;;16.08;75.75
6024;BME280;3040;42.654;23.296;2023-05-09T00:43:06;94515.69;;;15.98;74.50
6024;BME280;3040;42.654;23.296;2023-05-09T00:45:33;94519.22;;;15.75;74.65
6024;BME280;3040;42.654;23.296;2023-05-09T00:48:00;94504.50;;;15.62;74.17
6024;BME280;3040;42.654;23.296;2023-05-09T00:50:27;94518.91;;;15.80;73.92
6024;BME280;3040;42.654;23.296;2023-05-09T00:52:54;94524.72;;;15.86;74.40
6024;BME280;3040;42.654;23.296;2023-05-09T00:55:23;94528.66;;;15.92;75.08
6024;BME280;3040;42.654;23.296;2023-05-09T00:57:50;94511.06;;;15.42;75.56
6024;BME280;3040;42.654;23.296;2023-05-09T01:00:17;94480.41;;;14.90;77.14
6024;BME280;3040;42.654;23.296;2023-05-09T01:02:46;94511.03;;;15.16;76.70
6024;BME280;3040;42.654;23.296;2023-05-09T01:05:14;94521.94;;;15.03;77.92
6024;BME280;3040;42.654;23.296;2023-05-09T01:07:46;94489.63;;;14.93;77.85
6024;BME280;3040;42.654;23.296;2023-05-09T01:10:21;94472.19;;;14.57;77.71
6024;BME280;3040;42.654;23.296;2023-05-09T01:12:54;94431.31;;;14.37;78.99
6024;BME280;3040;42.654;23.296;2023-05-09T01:15:30;94515.19;;;14.68;79.78
6024;BME280;3040;42.654;23.296;2023-05-09T01:18:03;94512.34;;;14.80;80.21
6024;BME280;3040;42.654;23.296;2023-05-09T01:20:35;94513.19;;;14.84;79.33
6024;BME280;3040;42.654;23.296;2023-05-09T01:23:15;94516.63;;;14.61;79.62
6024;BME280;3040;42.654;23.296;2023-05-09T01:25:53;94349.00;;;13.27;79.81
6024;BME280;3040;42.654;23.296;2023-05-09T01:28:48;94509.09;;;14.28;80.47
6024;BME280;3040;42.654;23.296;2023-05-09T01:31:24;94433.31;;;13.82;80.46
6024;BME280;3040;42.654;23.296;2023-05-09T01:33:56;94504.50;;;14.29;80.37
6024;BME280;3040;42.654;23.296;2023-05-09T01:36:27;94478.34;;;14.00;80.60
6024;BME280;3040;42.654;23.296;2023-05-09T01:38:56;94507.41;;;14.20;81.69
6024;BME280;3040;42.654;23.296;2023-05-09T01:41:24;94491.81;;;14.03;82.08
6024;BME280;3040;42.654;23.296;2023-05-09T01:43:56;94448.66;;;13.66;82.75
6024;BME280;3040;42.654;23.296;2023-05-09T01:46:27;94502.75;;;14.17;82.06
6024;BME280;3040;42.654;23.296;2023-05-09T01:48:55;94459.41;;;13.89;82.39
6024;BME280;3040;42.654;23.296;2023-05-09T01:51:23;94514.03;;;14.26;82.22
6024;BME280;3040;42.654;23.296;2023-05-09T01:53:51;94489.53;;;14.05;82.22
6024;BME280;3040;42.654;23.296;2023-05-09T01:56:21;94481.44;;;13.82;81.94
6024;BME280;3040;42.654;23.296;2023-05-09T01:58:50;94517.00;;;14.21;82.85
6024;BME280;3040;42.654;23.296;2023-05-09T02:01:18;94467.28;;;14.20;82.05
6024;BME280;3040;42.654;23.296;2023-05-09T02:03:48;94446.81;;;14.28;81.50
6024;BME280;3040;42.654;23.296;2023-05-09T02:06:17;94515.94;;;14.87;80.57
6024;BME280;3040;42.654;23.296;2023-05-09T02:08:46;94510.28;;;14.92;78.87
6024;BME280;3040;42.654;23.296;2023-05-09T02:11:13;94512.91;;;15.12;78.94
6024;BME280;3040;42.654;23.296;2023-05-09T02:13:40;94520.44;;;15.29;78.55
6024;BME280;3040;42.654;23.296;2023-05-09T02:16:07;94517.13;;;15.39;78.22
6024;BME280;3040;42.654;23.296;2023-05-09T02:18:34;94512.66;;;15.46;77.29
6024;BME280;3040;42.654;23.296;2023-05-09T02:21:03;94464.16;;;15.29;77.16
6024;BME280;3040;42.654;23.296;2023-05-09T02:23:30;94496.59;;;15.46;77.39
6024;BME280;3040;42.654;23.296;2023-05-09T02:25:57;94510.16;;;15.57;77.12
6024;BME280;3040;42.654;23.296;2023-05-09T02:28:26;94508.31;;;15.61;76.71
6024;BME280;3040;42.654;23.296;2023-05-09T02:30:54;94506.34;;;15.58;75.85
6024;BME280;3040;42.654;23.296;2023-05-09T02:33:23;94501.44;;;15.64;77.25
6024;BME280;3040;42.654;23.296;2023-05-09T02:35:51;94483.19;;;15.46;76.78
6024;BME280;3040;42.654;23.296;2023-05-09T02:38:20;94509.97;;;15.69;77.24
6024;BME280;3040;42.654;23.296;2023-05-09T02:40:47;94320.72;;;14.52;75.87
6024;BME280;3040;42.654;23.296;2023-05-09T02:43:15;94508.50;;;15.75;76.05
6024;BME280;3040;42.654;23.296;2023-05-09T02:45:42;94510.09;;;15.80;75.85
6024;BME280;3040;42.654;23.296;2023-05-09T02:48:09;94510.09;;;15.80;75.58
6024;BME280;3040;42.654;23.296;2023-05-09T02:50:36;94499.97;;;15.66;75.80
6024;BME280;3040;42.654;23.296;2023-05-09T02:53:04;94511.50;;;15.70;76.16
6024;BME280;3040;42.654;23.296;2023-05-09T02:55:32;94456.59;;;15.34;75.61
6024;BME280;3040;42.654;23.296;2023-05-09T02:57:59;94509.19;;;15.69;75.98
6024;BME280;3040;42.654;23.296;2023-05-09T03:00:26;94506.03;;;15.63;75.40
6024;BME280;3040;42.654;23.296;2023-05-09T03:02:53;94513.28;;;15.59;76.04
6024;BME280;3040;42.654;23.296;2023-05-09T03:05:20;94518.38;;;15.45;76.33
6024;BME280;3040;42.654;23.296;2023-05-09T03:07:47;94515.44;;;15.27;76.64
6024;BME280;3040;42.654;23.296;2023-05-09T03:10:15;94511.53;;;14.98;78.79
6024;BME280;3040;42.654;23.296;2023-05-09T03:12:44;94509.47;;;14.88;79.77
6024;BME280;3040;42.654;23.296;2023-05-09T03:15:10;94509.31;;;15.04;78.58
6024;BME280;3040;42.654;23.296;2023-05-09T03:17:37;94516.09;;;15.21;78.96
6024;BME280;3040;42.654;23.296;2023-05-09T03:20:06;94525.50;;;15.34;78.88
6024;BME280;3040;42.654;23.296;2023-05-09T03:22:34;94514.78;;;15.34;78.06
6024;BME280;3040;42.654;23.296;2023-05-09T03:25:01;94536.47;;;15.52;77.58
6024;BME280;3040;42.654;23.296;2023-05-09T03:27:28;94541.25;;;15.62;77.50
6024;BME280;3040;42.654;23.296;2023-05-09T03:29:56;94552.84;;;15.69;77.19
6024;BME280;3040;42.654;23.296;2023-05-09T03:32:25;94541.47;;;15.76;77.01
6024;BME280;3040;42.654;23.296;2023-05-09T03:34:52;94543.06;;;15.80;76.70
6024;BME280;3040;42.654;23.296;2023-05-09T03:37:20;94529.97;;;15.75;75.61
6024;BME280;3040;42.654;23.296;2023-05-09T03:39:47;94508.59;;;15.30;76.17
6024;BME280;3040;42.654;23.296;2023-05-09T03:42:14;94551.59;;;15.37;77.51
6024;BME280;3040;42.654;23.296;2023-05-09T03:44:40;94556.72;;;15.23;79.33
6024;BME280;3040;42.654;23.296;2023-05-09T03:47:09;94557.06;;;14.98;79.22
6024;BME280;3040;42.654;23.296;2023-05-09T03:49:35;94559.75;;;14.98;79.13
6024;BME280;3040;42.654;23.296;2023-05-09T03:52:02;94561.69;;;15.01;79.08
6024;BME280;3040;42.654;23.296;2023-05-09T03:54:29;94558.06;;;14.90;80.74
6024;BME280;3040;42.654;23.296;2023-05-09T03:56:56;94530.63;;;14.74;80.51
6024;BME280;3040;42.654;23.296;2023-05-09T03:59:23;94564.28;;;14.94;80.35
6024;BME280;3040;42.654;23.296;2023-05-09T04:01:50;94550.31;;;14.85;80.52
6024;BME280;3040;42.654;23.296;2023-05-09T04:04:18;94548.59;;;14.96;80.25
6024;BME280;3040;42.654;23.296;2023-05-09T04:06:45;94565.16;;;15.02;79.96
6024;BME280;3040;42.654;23.296;2023-05-09T04:09:12;94561.34;;;15.03;79.76
6024;BME280;3040;42.654;23.296;2023-05-09T04:11:39;94566.09;;;14.90;81.08
6024;BME280;3040;42.654;23.296;2023-05-09T04:14:06;94564.53;;;14.89;81.85
6024;BME280;3040;42.654;23.296;2023-05-09T04:16:33;94567.38;;;14.77;81.50
6024;BME280;3040;42.654;23.296;2023-05-09T04:19:00;94565.31;;;14.90;82.24
6024;BME280;3040;42.654;23.296;2023-05-09T04:21:28;94574.38;;;14.82;81.10
6024;BME280;3040;42.654;23.296;2023-05-09T04:23:56;94564.84;;;14.84;80.93
6024;BME280;3040;42.654;23.296;2023-05-09T04:26:23;94568.91;;;14.55;81.61
6024;BME280;3040;42.654;23.296;2023-05-09T04:28:50;94557.53;;;14.23;83.66
6024;BME280;3040;42.654;23.296;2023-05-09T04:31:17;94556.44;;;14.44;83.26
6024;BME280;3040;42.654;23.296;2023-05-09T04:33:44;94556.84;;;14.65;82.56
6024;BME280;3040;42.654;23.296;2023-05-09T04:36:11;94538.22;;;14.72;82.60
6024;BME280;3040;42.654;23.296;2023-05-09T04:38:39;94556.34;;;15.01;81.61
6024;BME280;3040;42.654;23.296;2023-05-09T04:41:05;94459.03;;;14.48;80.84
6024;BME280;3040;42.654;23.296;2023-05-09T04:43:33;94567.59;;;15.33;80.10
6024;BME280;3040;42.654;23.296;2023-05-09T04:45:59;94539.13;;;15.25;80.37
6024;BME280;3040;42.654;23.296;2023-05-09T04:48:26;94571.94;;;15.64;78.81
6024;BME280;3040;42.654;23.296;2023-05-09T04:50:53;94569.97;;;15.87;78.22
6024;BME280;3040;42.654;23.296;2023-05-09T04:53:20;94562.50;;;16.00;78.16
6024;BME280;3040;42.654;23.296;2023-05-09T04:55:48;94549.09;;;15.74;75.59
6024;BME280;3040;42.654;23.296;2023-05-09T04:58:16;94564.50;;;15.80;77.61
6024;BME280;3040;42.654;23.296;2023-05-09T05:00:43;94551.63;;;15.63;77.16
6024;BME280;3040;42.654;23.296;2023-05-09T05:03:09;94559.78;;;15.70;74.70
6024;BME280;3040;42.654;23.296;2023-05-09T05:05:36;94572.09;;;15.75;76.03
6024;BME280;3040;42.654;23.296;2023-05-09T05:08:04;94521.44;;;15.70;75.16
6024;BME280;3040;42.654;23.296;2023-05-09T05:10:31;94564.59;;;15.87;74.97
6024;BME280;3040;42.654;23.296;2023-05-09T05:12:59;94562.44;;;15.97;74.12
6024;BME280;3040;42.654;23.296;2023-05-09T05:15:26;94515.63;;;15.64;74.13
6024;BME280;3040;42.654;23.296;2023-05-09T05:17:53;94575.44;;;16.21;74.52
6024;BME280;3040;42.654;23.296;2023-05-09T05:20:20;94556.44;;;16.07;73.55
6024;BME280;3040;42.654;23.296;2023-05-09T05:22:47;94537.16;;;15.98;72.26
6024;BME280;3040;42.654;23.296;2023-05-09T05:25:14;94565.16;;;16.30;72.78
6024;BME280;3040;42.654;23.296;2023-05-09T05:27:42;94560.47;;;15.94;72.22
6024;BME280;3040;42.654;23.296;2023-05-09T05:30:11;94577.28;;;16.17;73.61
6024;BME280;3040;42.654;23.296;2023-05-09T05:32:39;94570.19;;;16.02;72.39
6024;BME280;3040;42.654;23.296;2023-05-09T05:35:07;94572.41;;;15.96;71.88
6024;BME280;3040;42.654;23.296;2023-05-09T05:37:36;94580.00;;;15.91;72.41
6024;BME280;3040;42.654;23.296;2023-05-09T05:40:03;94577.22;;;15.83;71.05
6024;BME280;3040;42.654;23.296;2023-05-09T05:42:31;94580.44;;;15.96;71.38
6024;BME280;3040;42.654;23.296;2023-05-09T05:44:58;94572.09;;;16.01;71.43
6024;BME280;3040;42.654;23.296;2023-05-09T05:47:30;94566.16;;;15.88;71.65
6024;BME280;3040;42.654;23.296;2023-05-09T05:49:57;94583.13;;;15.96;72.40
6024;BME280;3040;42.654;23.296;2023-05-09T05:52:24;94574.22;;;15.88;72.43
6024;BME280;3040;42.654;23.296;2023-05-09T05:54:51;94581.41;;;16.11;72.26
6024;BME280;3040;42.654;23.296;2023-05-09T05:57:19;94589.66;;;16.25;71.84
6024;BME280;3040;42.654;23.296;2023-05-09T05:59:46;94574.91;;;16.12;71.30
6024;BME280;3040;42.654;23.296;2023-05-09T06:02:13;94573.81;;;16.16;72.10
6024;BME280;3040;42.654;23.296;2023-05-09T06:04:42;94589.97;;;16.20;71.84
6024;BME280;3040;42.654;23.296;2023-05-09T06:07:09;94583.19;;;16.00;73.01
6024;BME280;3040;42.654;23.296;2023-05-09T06:09:37;94574.63;;;15.91;74.00
6024;BME280;3040;42.654;23.296;2023-05-09T06:12:04;94579.56;;;15.62;76.33
6024;BME280;3040;42.654;23.296;2023-05-09T06:14:31;94584.22;;;15.65;75.11
6024;BME280;3040;42.654;23.296;2023-05-09T06:16:58;94511.22;;;15.03;74.98
6024;BME280;3040;42.654;23.296;2023-05-09T06:19:25;94569.22;;;15.61;75.98
6024;BME280;3040;42.654;23.296;2023-05-09T06:21:53;94426.78;;;14.41;74.99
6024;BME280;3040;42.654;23.296;2023-05-09T06:24:20;94582.97;;;15.36;77.16
6024;BME280;3040;42.654;23.296;2023-05-09T06:26:48;94575.16;;;15.28;75.45
6024;BME280;3040;42.654;23.296;2023-05-09T06:29:15;94574.81;;;15.06;77.13
6024;BME280;3040;42.654;23.296;2023-05-09T06:31:42;94587.13;;;14.88;78.42
6024;BME280;3040;42.654;23.296;2023-05-09T06:34:09;94559.59;;;14.69;78.05
6024;BME280;3040;42.654;23.296;2023-05-09T06:36:36;94581.91;;;14.76;79.08
6024;BME280;3040;42.654;23.296;2023-05-09T06:39:04;94578.94;;;14.81;78.52
6024;BME280;3040;42.654;23.296;2023-05-09T06:41:31;94481.09;;;14.42;77.76
6024;BME280;3040;42.654;23.296;2023-05-09T06:43:58;94536.25;;;14.88;77.78
6024;BME280;3040;42.654;23.296;2023-05-09T06:46:26;94553.84;;;15.35;77.92
6024;BME280;3040;42.654;23.296;2023-05-09T06:48:53;94575.53;;;15.75;75.22
6024;BME280;3040;42.654;23.296;2023-05-09T06:51:20;94578.22;;;15.75;76.19
6024;BME280;3040;42.654;23.296;2023-05-09T06:53:47;94576.69;;;16.01;72.71
6024;BME280;3040;42.654;23.296;2023-05-09T06:56:15;94582.03;;;16.01;72.19
6024;BME280;3040;42.654;23.296;2023-05-09T06:58:44;94548.31;;;15.73;71.29
6024;BME280;3040;42.654;23.296;2023-05-09T07:01:11;94593.69;;;16.12;70.06
6024;BME280;3040;42.654;23.296;2023-05-09T07:03:37;94565.81;;;15.90;72.14
6024;BME280;3040;42.654;23.296;2023-05-09T07:06:04;94576.88;;;16.15;73.33
6024;BME280;3040;42.654;23.296;2023-05-09T07:08:33;94550.97;;;16.00;70.39
6024;BME280;3040;42.654;23.296;2023-05-09T07:11:00;94582.09;;;16.34;69.20
6024;BME280;3040;42.654;23.296;2023-05-09T07:13:28;94563.69;;;16.33;69.71
6024;BME280;3040;42.654;23.296;2023-05-09T07:15:55;94572.28;;;16.45;69.35
6024;BME280;3040;42.654;23.296;2023-05-09T07:18:22;94537.63;;;16.33;67.94
6024;BME280;3040;42.654;23.296;2023-05-09T07:20:49;94580.72;;;16.47;68.05
6024;BME280;3040;42.654;23.296;2023-05-09T07:23:16;94583.13;;;15.96;70.25
6024;BME280;3040;42.654;23.296;2023-05-09T07:25:42;94588.31;;;15.85;70.88
6024;BME280;3040;42.654;23.296;2023-05-09T07:28:10;94619.78;;;15.62;70.60
6024;BME280;3040;42.654;23.296;2023-05-09T07:30:38;94557.75;;;15.41;72.03
6024;BME280;3040;42.654;23.296;2023-05-09T07:33:06;94581.16;;;15.44;72.58
6024;BME280;3040;42.654;23.296;2023-05-09T07:35:32;94574.69;;;15.22;71.34
6024;BME280;3040;42.654;23.296;2023-05-09T07:37:59;94574.09;;;15.10;72.80
6024;BME280;3040;42.654;23.296;2023-05-09T07:40:26;94578.91;;;15.23;73.48
6024;BME280;3040;42.654;23.296;2023-05-09T07:42:53;94582.66;;;15.41;73.77
6024;BME280;3040;42.654;23.296;2023-05-09T07:45:21;94583.97;;;15.51;72.71
6024;BME280;3040;42.654;23.296;2023-05-09T07:47:49;94552.91;;;15.50;71.13
6024;BME280;3040;42.654;23.296;2023-05-09T07:50:16;94533.59;;;15.60;71.13
6024;BME280;3040;42.654;23.296;2023-05-09T07:52:43;94556.94;;;15.60;70.70
6024;BME280;3040;42.654;23.296;2023-05-09T07:55:10;94582.84;;;16.05;70.32
6024;BME280;3040;42.654;23.296;2023-05-09T07:57:37;94585.59;;;16.08;69.19
6024;BME280;3040;42.654;23.296;2023-05-09T08:00:05;94585.34;;;15.91;70.40
6024;BME280;3040;42.654;23.296;2023-05-09T08:02:33;94581.91;;;15.90;68.87
6024;BME280;3040;42.654;23.296;2023-05-09T08:05:01;94533.78;;;15.74;69.40
6024;BME280;3040;42.654;23.296;2023-05-09T08:07:28;94568.84;;;16.15;69.55
6024;BME280;3040;42.654;23.296;2023-05-09T08:09:55;94569.81;;;16.33;69.12
6024;BME280;3040;42.654;23.296;2023-05-09T08:12:22;94581.94;;;16.53;67.12
6024;BME280;3040;42.654;23.296;2023-05-09T08:14:49;94548.94;;;16.19;65.78
6024;BME280;3040;42.654;23.296;2023-05-09T08:17:15;94567.59;;;16.39;67.07
6024;BME280;3040;42.654;23.296;2023-05-09T08:19:42;94575.44;;;16.54;68.06
6024;BME280;3040;42.654;23.296;2023-05-09T08:22:16;94580.81;;;16.88;66.40
6024;BME280;3040;42.654;23.296;2023-05-09T08:24:44;94571.84;;;17.10;66.68
6024;BME280;3040;42.654;23.296;2023-05-09T08:27:11;94571.47;;;17.12;66.07
6024;BME280;3040;42.654;23.296;2023-05-09T08:29:38;94574.66;;;17.24;65.32
6024;BME280;3040;42.654;23.296;2023-05-09T08:32:05;94580.56;;;17.00;65.54
6024;BME280;3040;42.654;23.296;2023-05-09T08:34:32;94585.81;;;16.86;65.10
6024;BME280;3040;42.654;23.296;2023-05-09T08:36:59;94572.31;;;16.49;66.63
6024;BME280;3040;42.654;23.296;2023-05-09T08:39:28;94572.44;;;16.59;67.01
6024;BME280;3040;42.654;23.296;2023-05-09T08:41:57;94389.59;;;15.08;68.75
6024;BME280;3040;42.654;23.296;2023-05-09T08:44:24;94579.78;;;16.62;66.68
6024;BME280;3040;42.654;23.296;2023-05-09T08:46:55;94549.09;;;16.04;67.74
6024;BME280;3040;42.654;23.296;2023-05-09T08:49:24;94578.19;;;16.28;68.45
6024;BME280;3040;42.654;23.296;2023-05-09T08:51:52;94533.16;;;15.84;68.13
6024;BME280;3040;42.654;23.296;2023-05-09T08:54:20;94571.28;;;15.71;71.35
6024;BME280;3040;42.654;23.296;2023-05-09T08:56:48;94566.78;;;15.78;71.32
6024;BME280;3040;42.654;23.296;2023-05-09T08:59:16;94568.13;;;15.65;70.96
6024;BME280;3040;42.654;23.296;2023-05-09T09:01:43;94564.22;;;15.59;71.55
6024;BME280;3040;42.654;23.296;2023-05-09T09:04:10;94563.66;;;15.73;71.10
6024;BME280;3040;42.654;23.296;2023-05-09T09:06:38;94510.22;;;15.38;70.24
6024;BME280;3040;42.654;23.296;2023-05-09T09:09:06;94563.22;;;15.97;68.75
6024;BME280;3040;42.654;23.296;2023-05-09T09:11:35;94566.44;;;16.10;68.91
6024;BME280;3040;42.654;23.296;2023-05-09T09:14:10;94561.50;;;16.12;69.27
6024;BME280;3040;42.654;23.296;2023-05-09T09:16:39;94567.03;;;15.96;68.41
6024;BME280;3040;42.654;23.296;2023-05-09T09:19:10;94569.66;;;15.93;69.13
6024;BME280;3040;42.654;23.296;2023-05-09T09:21:39;94557.34;;;15.88;68.14
6024;BME280;3040;42.654;23.296;2023-05-09T09:24:07;94547.13;;;15.71;68.93
6024;BME280;3040;42.654;23.296;2023-05-09T09:26:45;94557.50;;;15.72;69.09
6024;BME280;3040;42.654;23.296;2023-05-09T09:29:14;94551.41;;;15.75;70.30
6024;BME280;3040;42.654;23.296;2023-05-09T09:31:43;94566.78;;;15.78;70.48
6024;BME280;3040;42.654;23.296;2023-05-09T09:34:11;94574.41;;;15.76;69.79
6024;BME280;3040;42.654;23.296;2023-05-09T09:36:39;94579.25;;;15.44;70.22
6024;BME280;3040;42.654;23.296;2023-05-09T09:39:06;94570.88;;;15.46;71.69
6024;BME280;3040;42.654;23.296;2023-05-09T09:41:34;94555.88;;;15.19;72.41
6024;BME280;3040;42.654;23.296;2023-05-09T09:44:09;94575.88;;;15.25;72.00
6024;BME280;3040;42.654;23.296;2023-05-09T09:46:44;94575.28;;;15.35;73.53
6024;BME280;3040;42.654;23.296;2023-05-09T09:49:12;94574.81;;;15.52;72.99
6024;BME280;3040;42.654;23.296;2023-05-09T09:51:40;94584.72;;;15.52;71.68
6024;BME280;3040;42.654;23.296;2023-05-09T09:54:07;94572.06;;;15.26;71.20
6024;BME280;3040;42.654;23.296;2023-05-09T09:56:38;94570.91;;;15.49;72.60
6024;BME280;3040;42.654;23.296;2023-05-09T09:59:09;94557.75;;;15.41;71.58
6024;BME280;3040;42.654;23.296;2023-05-09T10:01:56;94572.66;;;15.61;69.57
6024;BME280;3040;42.654;23.296;2023-05-09T10:04:26;94581.41;;;15.58;71.03
6024;BME280;3040;42.654;23.296;2023-05-09T10:06:54;94573.91;;;15.44;71.90
6024;BME280;3040;42.654;23.296;2023-05-09T10:09:22;94363.75;;;13.98;71.37
6024;BME280;3040;42.654;23.296;2023-05-09T10:11:50;94545.38;;;15.33;71.60
6024;BME280;3040;42.654;23.296;2023-05-09T10:14:18;94564.41;;;15.73;71.39
6024;BME280;3040;42.654;23.296;2023-05-09T10:16:47;94553.03;;;15.31;70.17
6024;BME280;3040;42.654;23.296;2023-05-09T10:19:22;94542.56;;;15.26;71.00
6024;BME280;3040;42.654;23.296;2023-05-09T10:21:51;94552.34;;;15.15;72.49
6024;BME280;3040;42.654;23.296;2023-05-09T10:24:21;94503.25;;;14.84;73.09
6024;BME280;3040;42.654;23.296;2023-05-09T10:26:58;94524.09;;;15.17;74.23
6024;BME280;3040;42.654;23.296;2023-05-09T10:29:28;94553.84;;;15.58;72.79
6024;BME280;3040;42.654;23.296;2023-05-09T10:31:58;94556.28;;;15.66;73.14
6024;BME280;3040;42.654;23.296;2023-05-09T10:34:30;94564.22;;;15.59;72.62
6024;BME280;3040;42.654;23.296;2023-05-09T10:37:00;94558.47;;;15.38;73.97
6024;BME280;3040;42.654;23.296;2023-05-09T10:39:28;94557.22;;;15.32;73.45
6024;BME280;3040;42.654;23.296;2023-05-09T10:41:57;94552.47;;;15.22;74.89
6024;BME280;3040;42.654;23.296;2023-05-09T10:44:25;94545.34;;;15.29;75.73
6024;BME280;3040;42.654;23.296;2023-05-09T10:46:53;94536.16;;;15.07;74.94
6024;BME280;3040;42.654;23.296;2023-05-09T10:49:22;94555.28;;;15.29;73.78
6024;BME280;3040;42.654;23.296;2023-05-09T10:51:50;94544.38;;;15.41;72.84
6024;BME280;3040;42.654;23.296;2023-05-09T10:54:25;94529.31;;;15.33;74.95
6024;BME280;3040;42.654;23.296;2023-05-09T10:56:53;94554.41;;;15.70;72.93
6024;BME280;3040;42.654;23.296;2023-05-09T10:59:32;94546.00;;;15.72;73.90
6024;BME280;3040;42.654;23.296;2023-05-09T11:01:59;94562.25;;;15.82;71.16
6024;BME280;3040;42.654;23.296;2023-05-09T11:04:28;94548.72;;;15.75;70.28
6024;BME280;3040;42.654;23.296;2023-05-09T11:06:56;94550.88;;;15.93;71.17
6024;BME280;3040;42.654;23.296;2023-05-09T11:09:25;94499.09;;;15.59;72.89
6024;BME280;3040;42.654;23.296;2023-05-09T11:11:53;94546.13;;;16.09;72.83
6024;BME280;3040;42.654;23.296;2023-05-09T11:14:30;94548.97;;;16.23;71.27
6024;BME280;3040;42.654;23.296;2023-05-09T11:16:58;94547.72;;;16.47;70.89
6024;BME280;3040;42.654;23.296;2023-05-09T11:19:57;94552.63;;;16.71;68.97
6024;BME280;3040;42.654;23.296;2023-05-09T11:22:27;94567.00;;;16.86;67.82
6024;BME280;3040;42.654;23.296;2023-05-09T11:25:06;94555.13;;;16.87;68.18
6024;BME280;3040;42.654;23.296;2023-05-09T11:27:39;94415.31;;;15.99;67.89
6024;BME280;3040;42.654;23.296;2023-05-09T11:30:09;94521.31;;;16.86;67.81
6024;BME280;3040;42.654;23.296;2023-05-09T11:32:44;94333.47;;;15.78;65.79
6024;BME280;3040;42.654;23.296;2023-05-09T11:35:13;94556.31;;;17.33;64.04
6024;BME280;3040;42.654;23.296;2023-05-09T11:37:47;94557.44;;;17.32;64.17
6024;BME280;3040;42.654;23.296;2023-05-09T11:40:15;94360.78;;;15.87;65.97
6024;BME280;3040;42.654;23.296;2023-05-09T11:42:44;94557.38;;;16.85;67.00
6024;BME280;3040;42.654;23.296;2023-05-09T11:45:12;94496.34;;;16.48;67.58
6024;BME280;3040;42.654;23.296;2023-05-09T11:47:39;94562.09;;;16.95;66.92
6024;BME280;3040;42.654;23.296;2023-05-09T11:50:07;94533.22;;;16.51;66.54
6024;BME280;3040;42.654;23.296;2023-05-09T11:52:35;94549.94;;;16.38;67.38
6024;BME280;3040;42.654;23.296;2023-05-09T11:55:05;94554.38;;;16.56;67.57
6024;BME280;3040;42.654;23.296;2023-05-09T11:57:34;94466.16;;;16.21;67.39
6024;BME280;3040;42.654;23.296;2023-05-09T12:00:01;94510.69;;;16.59;67.07
6024;BME280;3040;42.654;23.296;2023-05-09T12:02:29;94545.50;;;16.52;68.07
6024;BME280;3040;42.654;23.296;2023-05-09T12:05:05;94542.25;;;16.36;67.51
6024;BME280;3040;42.654;23.296;2023-05-09T12:07:34;94537.25;;;16.05;68.63
6024;BME280;3040;42.654;23.296;2023-05-09T12:10:01;94556.66;;;15.95;68.97
6024;BME280;3040;42.654;23.296;2023-05-09T12:12:34;94554.69;;;15.92;69.07
6024;BME280;3040;42.654;23.296;2023-05-09T12:15:02;94533.97;;;15.88;69.33
6024;BME280;3040;42.654;23.296;2023-05-09T12:17:30;94508.09;;;15.47;69.78
6024;BME280;3040;42.654;23.296;2023-05-09T12:19:58;94543.53;;;15.60;69.92
6024;BME280;3040;42.654;23.296;2023-05-09T12:22:26;94346.09;;;14.16;70.56
6024;BME280;3040;42.654;23.296;2023-05-09T12:24:54;94536.81;;;15.24;71.09
6024;BME280;3040;42.654;23.296;2023-05-09T12:27:21;94547.66;;;15.31;71.59
6024;BME280;3040;42.654;23.296;2023-05-09T12:29:52;94545.75;;;15.08;72.23
6024;BME280;3040;42.654;23.296;2023-05-09T12:32:19;94547.13;;;14.99;72.44
6024;BME280;3040;42.654;23.296;2023-05-09T12:34:46;94459.94;;;14.37;73.65
6024;BME280;3040;42.654;23.296;2023-05-09T12:37:14;94543.88;;;14.67;73.90
6024;BME280;3040;42.654;23.296;2023-05-09T12:39:41;94540.19;;;14.52;73.53
6024;BME280;3040;42.654;23.296;2023-05-09T12:42:11;94537.72;;;14.44;75.00
6024;BME280;3040;42.654;23.296;2023-05-09T12:44:39;94488.91;;;14.12;75.71
6024;BME280;3040;42.654;23.296;2023-05-09T12:47:11;94380.06;;;13.35;76.07
6024;BME280;3040;42.654;23.296;2023-05-09T12:49:38;94538.25;;;14.34;76.35
6024;BME280;3040;42.654;23.296;2023-05-09T12:52:16;94541.00;;;14.18;77.60
6024;BME280;3040;42.654;23.296;2023-05-09T12:54:45;94317.09;;;12.80;78.21
6024;BME280;3040;42.654;23.296;2023-05-09T12:57:20;94529.38;;;14.10;78.04
6024;BME280;3040;42.654;23.296;2023-05-09T12:59:47;94508.69;;;14.07;78.62
6024;BME280;3040;42.654;23.296;2023-05-09T13:02:16;94519.38;;;14.07;79.04
6024;BME280;3040;42.654;23.296;2023-05-09T13:04:43;94524.28;;;14.05;79.14
6024;BME280;3040;42.654;23.296;2023-05-09T13:07:10;94458.28;;;13.71;78.95
6024;BME280;3040;42.654;23.296;2023-05-09T13:09:53;94522.06;;;14.26;78.18
6024;BME280;3040;42.654;23.296;2023-05-09T13:12:22;94511.38;;;14.26;77.80
6024;BME280;3040;42.654;23.296;2023-05-09T13:14:49;94506.69;;;14.23;78.64
6024;BME280;3040;42.654;23.296;2023-05-09T13:17:17;94432.50;;;13.78;78.38